AirNav   ATP
 
 551 users online  

00M Thigpen Field Airport
Bay Springs, Mississippi, USA

GOING TO BAY SPRINGS?


FAA INFORMATION EFFECTIVE 21 JUNE 2018

Location

FAA Identifier: 00M
Lat/Long: 31-57-13.5000N / 089-14-07.2000W
31-57.225000N / 089-14.120000W
31.9537500 / -89.2353333
(estimated)
Elevation: 351 ft. / 107 m (estimated)
Variation: 02E (1985)
From city: 3 miles SE of BAY SPRINGS, MS
Time zone: UTC -5 (UTC -6 during Standard Time)
Zip code: 39422

Airport Operations

Airport use: Open to the public
Activation date: 07/1965
Control tower: no
ARTCC: MEMPHIS CENTER
FSS: GREENWOOD FLIGHT SERVICE STATION
NOTAMs facility: GWO (NOTAM-D service available)
Attendance: UNATTENDED
Wind indicator: lighted
Segmented circle: yes
Lights: SS-SR
Beacon: white-green (lighted land airport)
GREEN LENS OTS INDEF. Operates sunset to sunrise.

Airport Communications

CTAF: 122.9
WX AWOS-3 at LUL (17 nm S): 119.275 (601-425-9792)

Nearby radio navigation aids

VOR radial/distance  VOR name  Freq  Var
LBYr004/32.5EATON VORTAC110.6005E
MEIr216/33.6MERIDIAN VORTAC117.0005E

Airport Services

Parking: tiedowns
Bottled oxygen: NONE
Bulk oxygen: NONE

Runway Information

Runway 16/34

Dimensions: 3000 x 50 ft. / 914 x 15 m
Surface: asphalt, in fair condition
Weight bearing capacity: 
Single wheel: 8.0
Runway edge lights: medium intensity
RUNWAY 16  RUNWAY 34
Latitude: 31-57.458397N31-56.990420N
Longitude: 089-14.213923W089-14.025057W
Elevation: 329.6 ft.358.2 ft.
Gradient: 1.1%1.1%
Traffic pattern: leftleft
Runway heading: 159 magnetic, 161 true339 magnetic, 341 true
Markings: basic, in good conditionbasic, in good condition
Obstructions: 65 ft. tree, 1980 ft. from runway, 250 ft. right of centerline, 27:1 slope to clear165 ft. trees, 4000 ft. from runway, 23:1 slope to clear

Airport Ownership and Management from official FAA records

Ownership: Publicly-owned
Owner: CITY OF BAY SPRINGS
PO BOX 307
BAY SPRINGS, MS 39422
Phone 601-764-4112
Manager: CORY BLACKWELL
PO BOX 307
BAY SPRINGS, MS 39422
Phone (601) 580-0469
AMGR MAY BE RCHD AFT HRS AT (601) 670-1523.

Airport Operational Statistics

Aircraft based on the field: 2
Single engine airplanes: 2
    
Aircraft operations: avg 107/week *
65% transient general aviation
35% local general aviation
* for 12-month period ending 05 April 2018

Additional Remarks

PUBLIC PHONE AT ARPT 601-764-2558.
TREES ON EAST AND WEST SIDES OF RY VIOLATE TRANSITIONAL SFC.

Instrument Procedures

There are no published instrument procedures at 00M.

Some nearby airports with instrument procedures:

KLUL - Hesler-Noble Field Airport (17 nm S)
17M - Magee Municipal Airport (29 nm W)
KPIB - Hattiesburg-Laurel Regional Airport (30 nm S)
KMEI - Key Field Airport (33 nm NE)
M43 - Prentiss-Jefferson Davis County Airport (40 nm SW)
 
Loc | Ops | Rwys | IFR | FBO | Links
Com | Nav | Svcs | Stats | Notes

AirNav Hotels Sweepstakes
 
Area around 00M (Thigpen Field Airport)
 
Road maps at: MapQuest Bing Google
 
Aerial photo
WARNING: Photo may not be current or correct
Aerial photo of 00M (Thigpen Field Airport)
Do you have a better or more recent aerial photo of Thigpen Field Airport that you would like to share? If so, please send us your photo.

 
Sectional chart

 
Airport distance calculator
Flying to Thigpen Field Airport? Find the distance to fly.

From to 00M

Sunrise and sunset
Times for 23-Jun-2018
 Local
(UTC-5)
 Zulu
(UTC)
Morning civil twilight05:2510:25
Sunrise05:5310:53
Sunset20:0501:05
Evening civil twilight20:3401:34

Current date and time
Zulu (UTC)  23-Jun-2018 05:32:23
Local (UTC-5)  23-Jun-2018 00:32:23
 
METAR
KPIB 
30nm S 
230456Z AUTO 21004KT 10SM CLR 24/22 A2987 RMK AO2 SLP113 T02390217
KLUL 
30nm S 
230515Z AUTO 00000KT 10SM CLR 22/22 A2987 RMK AO2 T02200220
KMEI 
34nm NE 
230458Z AUTO 19005KT 10SM CLR 23/20 A2986 RMK AO2 SLP107 T02280200
KHBG 
41nm S 
230453Z AUTO 20006KT 10SM CLR 26/23 A2986 RMK AO2 SLP110 T02560228 TSNO
KJAN 
48nm NW 
230454Z AUTO 18005KT 10SM CLR 22/21 A2984 RMK AO2 SLP099 T02170206
KNMM 
49nm NE 
230456Z AUTO 00000KT 10SM CLR 23/21 A2985 RMK AO2 SLP115 T02280206
K0R0 
49nm SW 
230515Z AUTO 19005KT 10SM CLR 24/23 A2991 RMK AO2
TAF
KMEI 
34nm NE 
221720Z 2218/2318 21010KT P6SM SCT025 BKN040 BKN250 FM222100 22011KT P6SM VCTS SCT030 BKN040CB FM230300 20005KT P6SM FEW050 SCT250 FM231100 22008KT P6SM BKN015 BKN250 FM231500 23011KT P6SM SCT020 BKN040
KHBG 
41nm S 
221720Z 2218/2318 25011KT P6SM SCT025 SCT050 FM222100 24011KT P6SM VCTS SCT030 BKN050CB FM230400 19006KT P6SM SCT040 BKN250 FM231100 22005KT P6SM BKN008 BKN250 FM231300 23006KT P6SM FEW015 SCT250
NOTAMs
Click for the latest NOTAMs
NOTAMs are issued by the DoD/FAA and will open in a separate window not controlled by AirNav.

 

 
 

Would you like to see your business listed on this page?

 If your business provides an interesting product or service to pilots, flight crews, aircraft, or users of the Thigpen Field Airport, you should consider listing it here.  To start the listing process, click on the button below
 
Add a business
 

Other Pages about Thigpen Field Airport

Update a link
 
Copyright © AirNav, LLC. All rights reserved. Privacy Policy  Contact